Time;durP1;ratioP1;P1;durP2;ratioP2;P2;SDS_P1;SDS_P2;PMS_P1;PMS_P2;Temp;Humidity;BMP_temperature;BMP_pressure;BME280_temperature;BME280_humidity;BME280_pressure;Samples;Min_cycle;Max_cycle;Signal;HPM_P1;HPM_P2
2023/08/30 00:00:47;;;;;;;4.35;3.95;;;14.80;99.90;;;;;;5124186;27;20049;-61
2023/08/30 00:03:13;;;;;;;4.22;3.90;;;14.80;99.90;;;;;;5111781;28;20050;-62
2023/08/30 00:05:40;;;;;;;4.38;3.75;;;14.80;99.90;;;;;;5105999;28;20039;-61
2023/08/30 00:08:05;;;;;;;7.13;4.57;;;14.70;99.90;;;;;;5105909;28;20582;-61
2023/08/30 00:10:31;;;;;;;5.15;4.45;;;14.70;99.90;;;;;;5119833;28;20118;-61
2023/08/30 00:12:57;;;;;;;5.47;4.72;;;14.70;99.90;;;;;;5089381;28;20042;-70
2023/08/30 00:15:23;;;;;;;5.07;4.63;;;14.70;99.90;;;;;;5128008;28;20522;-61
2023/08/30 00:17:51;;;;;;;5.32;4.35;;;14.60;99.90;;;;;;5124112;28;20095;-61
2023/08/30 00:20:17;;;;;;;5.20;4.70;;;14.60;99.90;;;;;;5118124;28;20058;-61
2023/08/30 00:22:43;;;;;;;4.68;4.28;;;14.60;99.90;;;;;;5105495;28;20123;-61
2023/08/30 00:25:09;;;;;;;5.18;4.68;;;14.50;99.90;;;;;;5107010;28;20563;-61
2023/08/30 00:27:34;;;;;;;5.97;5.05;;;14.50;99.90;;;;;;5106181;28;20040;-69
2023/08/30 00:30:00;;;;;;;5.28;4.78;;;14.40;99.90;;;;;;5106020;28;20084;-62
2023/08/30 00:32:26;;;;;;;6.07;4.50;;;14.40;99.90;;;;;;5120730;28;20039;-61
2023/08/30 00:34:52;;;;;;;5.57;5.07;;;14.40;99.90;;;;;;5110705;27;20511;-61
2023/08/30 00:37:17;;;;;;;7.60;5.05;;;14.30;99.90;;;;;;5121133;27;20052;-61
2023/08/30 00:39:43;;;;;;;7.45;4.72;;;14.30;99.90;;;;;;5122328;27;20031;-61
2023/08/30 00:42:09;;;;;;;6.95;5.28;;;14.20;99.90;;;;;;5124968;27;20481;-62
2023/08/30 00:44:35;;;;;;;5.32;4.75;;;14.20;99.90;;;;;;5109731;27;20126;-81
2023/08/30 00:47:04;;;;;;;9.52;5.25;;;14.20;99.90;;;;;;5108790;28;20478;-61
2023/08/30 00:49:33;;;;;;;5.27;4.77;;;14.10;99.90;;;;;;5110242;28;20133;-61
2023/08/30 00:52:05;;;;;;;6.63;4.63;;;14.10;99.90;;;;;;5107745;28;20115;-61
2023/08/30 00:54:31;;;;;;;4.95;4.60;;;14.10;99.90;;;;;;5109963;27;20056;-61
2023/08/30 00:56:57;;;;;;;5.05;4.50;;;14.10;99.90;;;;;;5108832;27;20040;-62
2023/08/30 00:59:24;;;;;;;10.55;4.95;;;14.00;99.90;;;;;;5131606;27;20039;-81
2023/08/30 01:01:50;;;;;;;5.78;5.18;;;14.00;99.90;;;;;;5124000;27;20126;-61
2023/08/30 01:04:18;;;;;;;11.50;5.05;;;13.90;99.90;;;;;;5124334;27;20501;-62
2023/08/30 01:06:43;;;;;;;5.68;4.75;;;13.90;99.90;;;;;;5115338;27;20043;-61
2023/08/30 01:09:10;;;;;;;9.43;4.93;;;13.90;99.90;;;;;;5110371;27;20074;-61
2023/08/30 01:11:50;;;;;;;5.57;5.07;;;13.80;99.90;;;;;;5121528;27;20114;-61
2023/08/30 01:14:20;;;;;;;5.72;5.22;;;13.80;99.90;;;;;;5108654;28;20039;-64
2023/08/30 01:16:47;;;;;;;8.80;5.40;;;13.70;99.90;;;;;;5125112;27;20051;-61
2023/08/30 01:19:41;;;;;;;9.20;5.88;;;13.70;99.90;;;;;;5120774;27;20046;-62
2023/08/30 01:22:25;;;;;;;6.57;5.72;;;13.60;99.90;;;;;;5112873;27;20047;-62
2023/08/30 01:25:37;;;;;;;10.10;6.30;;;13.60;99.90;;;;;;5130221;27;20047;-61
2023/08/30 01:28:07;;;;;;;8.27;6.53;;;13.50;99.90;;;;;;5114333;27;20106;-61
2023/08/30 01:30:37;;;;;;;6.53;5.93;;;13.50;99.90;;;;;;5112762;27;20050;-61
2023/08/30 01:33:03;;;;;;;;;;;13.50;99.90;;;;;;5134061;27;20035;-66
2023/08/30 01:35:32;;;;;;;12.77;6.50;;;13.40;99.90;;;;;;5150286;27;20399;-63
2023/08/30 01:38:01;;;;;;;8.75;7.60;;;13.40;99.90;;;;;;5133467;27;20083;-62
2023/08/30 01:40:30;;;;;;;8.32;7.47;;;13.30;99.90;;;;;;5128934;27;20032;-61
2023/08/30 01:42:57;;;;;;;8.18;7.38;;;13.30;99.90;;;;;;5130438;27;20046;-64
2023/08/30 01:45:25;;;;;;;9.60;7.85;;;13.30;99.90;;;;;;5131423;27;20089;-66
2023/08/30 01:47:52;;;;;;;8.13;7.43;;;13.30;99.90;;;;;;5135696;27;20058;-61
2023/08/30 01:50:19;;;;;;;9.00;7.55;;;13.30;99.90;;;;;;5130252;27;20413;-62
2023/08/30 01:52:46;;;;;;;12.82;8.30;;;13.30;99.90;;;;;;5130973;27;20043;-61
2023/08/30 01:55:14;;;;;;;10.05;7.82;;;13.30;99.90;;;;;;5240753;22;20378;-61
2023/08/30 01:57:40;;;;;;;9.93;8.73;;;13.30;99.90;;;;;;5028997;28;20041;-61
2023/08/30 02:00:06;;;;;;;9.00;8.10;;;13.30;99.90;;;;;;5028107;28;20049;-61
2023/08/30 02:02:33;;;;;;;9.73;7.30;;;13.30;99.90;;;;;;5028127;28;20037;-61
2023/08/30 02:04:59;;;;;;;8.93;7.38;;;13.30;99.90;;;;;;5010960;28;20049;-61
2023/08/30 02:07:54;;;;;;;9.07;7.72;;;13.30;99.90;;;;;;5027463;28;20041;-61
2023/08/30 02:10:37;;;;;;;8.43;7.63;;;13.30;99.90;;;;;;5027422;28;20057;-61
2023/08/30 02:13:04;;;;;;;10.23;8.05;;;13.30;99.90;;;;;;5011143;28;20490;-61
2023/08/30 02:15:32;;;;;;;8.40;7.43;;;13.30;99.90;;;;;;5028424;28;20073;-61
2023/08/30 02:17:59;;;;;;;8.57;6.97;;;13.30;99.90;;;;;;5028848;28;20383;-61
2023/08/30 02:20:26;;;;;;;7.80;6.93;;;13.30;99.90;;;;;;5027564;28;20056;-61
2023/08/30 02:22:51;;;;;;;9.18;7.60;;;13.20;99.90;;;;;;5029049;28;20045;-61
2023/08/30 02:25:17;;;;;;;7.40;6.70;;;13.20;99.90;;;;;;5028992;28;20037;-61
2023/08/30 02:27:43;;;;;;;8.32;7.47;;;13.20;99.90;;;;;;5028555;28;20503;-61
2023/08/30 02:30:09;;;;;;;8.10;7.30;;;13.20;99.90;;;;;;5029062;28;20064;-61
2023/08/30 02:32:35;;;;;;;9.38;7.40;;;13.10;99.90;;;;;;5026722;28;20045;-61
2023/08/30 02:35:02;;;;;;;9.90;7.55;;;13.00;99.90;;;;;;5027197;28;20395;-61
2023/08/30 02:37:28;;;;;;;8.63;7.00;;;13.00;99.90;;;;;;5028392;28;20627;-61
2023/08/30 02:39:53;;;;;;;9.57;7.47;;;12.90;99.90;;;;;;5028626;28;20114;-61
2023/08/30 02:42:19;;;;;;;7.68;6.97;;;12.90;99.90;;;;;;5027909;28;20053;-61
2023/08/30 02:44:45;;;;;;;8.25;7.45;;;12.90;99.90;;;;;;5026994;28;20099;-61
2023/08/30 02:47:11;;;;;;;7.68;6.97;;;12.80;99.90;;;;;;5028704;28;20038;-61
2023/08/30 02:49:36;;;;;;;12.98;7.20;;;12.70;99.90;;;;;;5026546;28;20053;-61
2023/08/30 02:52:03;;;;;;;8.57;7.63;;;12.70;99.90;;;;;;5015358;28;20061;-61
2023/08/30 02:54:28;;;;;;;8.35;7.45;;;12.60;99.90;;;;;;5025953;28;20072;-61
2023/08/30 02:56:54;;;;;;;9.43;7.80;;;12.60;99.90;;;;;;5026416;28;20058;-61
2023/08/30 02:59:20;;;;;;;12.80;8.18;;;12.50;99.90;;;;;;5025308;28;20525;-61
2023/08/30 03:01:45;;;;;;;8.85;7.55;;;12.50;99.90;;;;;;5027004;28;20121;-61
2023/08/30 03:04:11;;;;;;;9.98;6.88;;;12.50;99.90;;;;;;5027101;28;20468;-61
2023/08/30 03:06:37;;;;;;;8.50;7.65;;;12.40;99.90;;;;;;5026783;28;20041;-61
2023/08/30 03:09:04;;;;;;;8.57;7.60;;;12.40;99.90;;;;;;5026891;28;20479;-61
2023/08/30 03:11:29;;;;;;;9.57;6.95;;;12.40;99.90;;;;;;5025776;28;20075;-61
2023/08/30 03:13:55;;;;;;;9.73;7.18;;;12.30;99.90;;;;;;5026554;28;20052;-61
2023/08/30 03:16:21;;;;;;;8.95;7.57;;;12.30;99.90;;;;;;5025918;28;20460;-61
2023/08/30 03:18:48;;;;;;;10.60;7.13;;;12.30;99.90;;;;;;5025614;28;20557;-61
2023/08/30 03:21:14;;;;;;;10.05;7.22;;;12.30;99.90;;;;;;5025379;28;20059;-61
2023/08/30 03:23:41;;;;;;;8.93;7.63;;;12.20;99.90;;;;;;5026528;28;20462;-61
2023/08/30 03:26:19;;;;;;;9.23;7.68;;;12.20;99.90;;;;;;5027378;28;20049;-61
2023/08/30 03:28:44;;;;;;;10.40;8.00;;;12.20;99.90;;;;;;5025523;28;20081;-61
2023/08/30 03:31:20;;;;;;;14.48;8.00;;;12.10;99.90;;;;;;5026072;28;20072;-61
2023/08/30 03:33:46;;;;;;;14.63;8.40;;;12.10;99.90;;;;;;5024907;28;20075;-61
2023/08/30 03:36:14;;;;;;;8.45;7.40;;;12.10;99.90;;;;;;5025796;28;20037;-61
2023/08/30 03:38:40;;;;;;;9.25;7.25;;;12.10;99.90;;;;;;5026816;28;20517;-61
2023/08/30 03:41:06;;;;;;;8.63;7.22;;;12.10;99.90;;;;;;5024802;28;20100;-61
2023/08/30 03:43:32;;;;;;;9.20;6.93;;;12.10;99.90;;;;;;5012769;28;20037;-61
2023/08/30 03:46:00;;;;;;;11.35;7.30;;;12.10;99.90;;;;;;5025744;28;20519;-61
2023/08/30 03:48:27;;;;;;;12.27;7.93;;;12.10;99.90;;;;;;5026784;28;20030;-61
2023/08/30 03:50:53;;;;;;;10.35;7.30;;;12.00;99.90;;;;;;5025804;28;20309;-61
2023/08/30 03:53:19;;;;;;;8.38;7.50;;;12.10;99.90;;;;;;5027018;28;20045;-61
2023/08/30 03:55:44;;;;;;;10.85;7.38;;;12.00;99.90;;;;;;5026241;28;20057;-61
2023/08/30 03:58:11;;;;;;;11.15;7.45;;;12.00;99.90;;;;;;5026060;28;20493;-61
2023/08/30 04:00:38;;;;;;;9.13;6.82;;;12.00;99.90;;;;;;5027124;28;20450;-61
2023/08/30 04:03:09;;;;;;;8.73;7.28;;;12.00;99.90;;;;;;5024133;28;20117;-61
2023/08/30 04:05:35;;;;;;;10.85;6.97;;;11.90;99.90;;;;;;5026788;28;20037;-61
2023/08/30 04:08:02;;;;;;;7.95;6.85;;;11.90;99.90;;;;;;5025780;28;20499;-61
2023/08/30 04:10:28;;;;;;;10.25;6.85;;;11.90;99.90;;;;;;5028253;28;20038;-61
2023/08/30 04:12:54;;;;;;;9.38;7.30;;;11.90;99.90;;;;;;5028423;28;20552;-61
2023/08/30 04:15:20;;;;;;;9.68;6.97;;;11.90;99.90;;;;;;5029584;28;20053;-61
2023/08/30 04:17:46;;;;;;;8.80;7.53;;;11.90;99.90;;;;;;5029222;28;20048;-61
2023/08/30 04:20:11;;;;;;;9.23;7.30;;;11.90;99.90;;;;;;5029417;28;20068;-61
2023/08/30 04:22:37;;;;;;;9.00;6.93;;;11.90;99.90;;;;;;5028750;28;20045;-61
2023/08/30 04:25:04;;;;;;;8.90;7.00;;;11.90;99.90;;;;;;5029431;28;20037;-61
2023/08/30 04:27:30;;;;;;;8.50;7.25;;;11.80;99.90;;;;;;5030341;28;20056;-61
2023/08/30 04:29:56;;;;;;;10.10;7.25;;;11.80;99.90;;;;;;5028963;28;20403;-61
2023/08/30 04:32:21;;;;;;;10.00;6.60;;;11.80;99.90;;;;;;5030101;28;20663;-61
2023/08/30 04:34:47;;;;;;;8.65;7.05;;;11.80;99.90;;;;;;5027722;28;20042;-61
2023/08/30 04:37:13;;;;;;;9.52;6.68;;;11.80;99.90;;;;;;5029915;28;20045;-61
2023/08/30 04:39:40;;;;;;;10.20;7.50;;;11.70;99.90;;;;;;5030179;28;20057;-61
2023/08/30 04:42:06;;;;;;;7.75;6.65;;;11.70;99.90;;;;;;5027470;28;20179;-61
2023/08/30 04:44:32;;;;;;;8.05;7.03;;;11.70;99.90;;;;;;5028528;28;20496;-61
2023/08/30 04:46:57;;;;;;;11.07;6.68;;;11.80;99.90;;;;;;5027202;28;20536;-61
2023/08/30 04:49:25;;;;;;;9.95;7.28;;;11.70;99.90;;;;;;5030264;28;20037;-61
2023/08/30 04:51:51;;;;;;;8.50;6.72;;;11.70;99.90;;;;;;5029206;28;20123;-61
2023/08/30 04:54:17;;;;;;;8.45;7.13;;;11.60;99.90;;;;;;5028229;28;20160;-61
2023/08/30 04:56:43;;;;;;;8.75;6.53;;;11.70;99.90;;;;;;5029170;28;20231;-61
2023/08/30 04:59:08;;;;;;;8.40;6.85;;;11.60;99.90;;;;;;5027197;28;20422;-61
2023/08/30 05:01:34;;;;;;;7.70;6.53;;;11.60;99.90;;;;;;5029142;28;20044;-61
2023/08/30 05:04:00;;;;;;;9.13;6.78;;;11.60;99.90;;;;;;5027084;28;20044;-61
2023/08/30 05:06:26;;;;;;;8.82;6.57;;;11.60;99.90;;;;;;5029555;28;20079;-61
2023/08/30 05:08:52;;;;;;;8.88;7.15;;;11.60;99.90;;;;;;5027038;28;20041;-61
2023/08/30 05:11:17;;;;;;;9.90;7.07;;;11.60;99.90;;;;;;5029842;28;20392;-61
2023/08/30 05:13:43;;;;;;;7.78;6.72;;;11.60;99.90;;;;;;5010980;28;20091;-61
2023/08/30 05:16:09;;;;;;;7.10;6.45;;;11.60;99.90;;;;;;5027107;28;20045;-61
2023/08/30 05:18:35;;;;;;;7.90;6.88;;;11.60;99.90;;;;;;5027520;28;20049;-61
2023/08/30 05:21:03;;;;;;;9.68;6.55;;;11.60;99.90;;;;;;5026928;28;20041;-61
2023/08/30 05:23:29;;;;;;;7.35;6.53;;;11.60;99.90;;;;;;5027620;28;20062;-61
2023/08/30 05:25:55;;;;;;;7.78;6.97;;;11.70;99.90;;;;;;5026306;28;20042;-61
2023/08/30 05:28:20;;;;;;;9.82;6.78;;;11.70;99.90;;;;;;5029699;28;20076;-61
2023/08/30 05:30:46;;;;;;;8.25;6.93;;;11.80;99.90;;;;;;5026684;28;20087;-61
2023/08/30 05:33:12;;;;;;;7.30;6.60;;;11.80;99.90;;;;;;5029213;28;20080;-61
2023/08/30 05:35:37;;;;;;;11.20;7.70;;;11.90;99.90;;;;;;5027334;28;20049;-61
2023/08/30 05:38:03;;;;;;;7.78;6.45;;;11.90;99.90;;;;;;5028046;28;20499;-61
2023/08/30 05:40:29;;;;;;;8.93;7.07;;;12.00;99.90;;;;;;5027941;28;20033;-61
2023/08/30 05:42:55;;;;;;;9.55;6.15;;;12.00;99.90;;;;;;5027743;28;20042;-61
2023/08/30 05:45:21;;;;;;;8.02;6.40;;;12.10;99.90;;;;;;5028037;28;20077;-61
2023/08/30 05:47:47;;;;;;;7.75;6.55;;;12.10;99.90;;;;;;5025726;28;20042;-61
2023/08/30 05:50:13;;;;;;;8.13;6.43;;;12.10;99.90;;;;;;5028847;28;20044;-61
2023/08/30 05:52:44;;;;;;;9.00;7.00;;;12.10;99.90;;;;;;5010087;28;20045;-61
2023/08/30 05:55:10;;;;;;;8.15;6.00;;;12.20;99.90;;;;;;5027940;28;20077;-61
2023/08/30 05:57:36;;;;;;;7.45;6.68;;;12.20;99.90;;;;;;5028195;28;20168;-61
2023/08/30 06:00:02;;;;;;;7.85;6.35;;;12.30;99.90;;;;;;5027347;28;20120;-61
2023/08/30 06:02:28;;;;;;;8.32;6.10;;;12.30;99.90;;;;;;5028081;28;20045;-61
2023/08/30 06:04:54;;;;;;;8.48;6.10;;;12.40;99.90;;;;;;5027378;28;20041;-61
2023/08/30 06:07:19;;;;;;;9.60;6.72;;;12.40;99.90;;;;;;5028481;28;20483;-61
2023/08/30 06:09:45;;;;;;;8.00;6.28;;;12.50;99.90;;;;;;5025929;28;20045;-61
2023/08/30 06:12:11;;;;;;;7.85;6.53;;;12.60;99.90;;;;;;5028435;28;20049;-61
2023/08/30 06:14:36;;;;;;;12.35;6.65;;;12.60;99.90;;;;;;5028008;28;20045;-63
2023/08/30 06:17:02;;;;;;;8.20;6.53;;;12.70;99.90;;;;;;5027330;28;20128;-61
2023/08/30 06:19:28;;;;;;;7.82;6.22;;;12.80;99.90;;;;;;5026572;28;20075;-62
2023/08/30 06:21:54;;;;;;;7.45;6.40;;;12.80;99.90;;;;;;5026972;28;20045;-61
2023/08/30 06:24:19;;;;;;;8.25;5.90;;;12.90;99.90;;;;;;5027999;28;20391;-62
2023/08/30 06:26:45;;;;;;;12.38;6.78;;;12.90;99.90;;;;;;5008854;28;20567;-61
2023/08/30 06:29:11;;;;;;;9.18;6.90;;;13.00;99.90;;;;;;5028175;28;20514;-61
2023/08/30 06:31:36;;;;;;;9.27;6.70;;;13.00;99.90;;;;;;5026875;28;20143;-61
2023/08/30 06:34:02;;;;;;;11.77;7.35;;;13.10;99.90;;;;;;5026952;28;20037;-61
2023/08/30 06:36:28;;;;;;;8.25;6.85;;;13.10;99.90;;;;;;5028117;28;20419;-61
2023/08/30 06:38:54;;;;;;;9.68;7.10;;;13.10;99.90;;;;;;5024887;28;20041;-61
2023/08/30 06:41:19;;;;;;;8.93;6.80;;;13.10;99.90;;;;;;5040952;28;20045;-61
2023/08/30 06:43:45;;;;;;;9.75;6.97;;;13.20;99.90;;;;;;5026209;28;20052;-61
2023/08/30 06:46:11;;;;;;;10.10;6.28;;;13.20;99.90;;;;;;5010497;28;20128;-62
2023/08/30 06:48:36;;;;;;;7.05;6.28;;;13.20;99.90;;;;;;5026112;28;20119;-61
2023/08/30 06:51:03;;;;;;;9.02;6.55;;;13.30;99.90;;;;;;5027974;28;20060;-61
2023/08/30 06:53:28;;;;;;;7.07;6.35;;;13.40;99.90;;;;;;5027749;28;20053;-61
2023/08/30 06:56:01;;;;;;;9.52;6.43;;;13.40;99.90;;;;;;5026588;28;20488;-61
2023/08/30 06:58:27;;;;;;;10.48;7.50;;;13.50;99.90;;;;;;5027851;28;21650;-61
2023/08/30 07:00:53;;;;;;;12.48;6.75;;;13.50;99.90;;;;;;5024765;28;20055;-61
2023/08/30 07:03:19;;;;;;;10.88;7.00;;;13.60;99.90;;;;;;5027982;28;20037;-61
2023/08/30 07:05:47;;;;;;;10.75;6.93;;;13.70;99.90;;;;;;5008796;28;20048;-62
2023/08/30 07:08:14;;;;;;;8.95;6.65;;;13.70;99.90;;;;;;5026282;28;20491;-61
2023/08/30 07:10:40;;;;;;;10.85;6.40;;;13.70;99.90;;;;;;5026673;28;20061;-61
2023/08/30 07:13:10;;;;;;;7.97;6.38;;;13.80;99.90;;;;;;5024422;28;20043;-62
2023/08/30 07:15:38;;;;;;;8.50;6.85;;;13.80;99.90;;;;;;5017507;28;20037;-62
2023/08/30 07:18:04;;;;;;;10.98;6.82;;;13.80;99.90;;;;;;5025315;28;20033;-61
2023/08/30 07:20:29;;;;;;;6.75;6.10;;;14.00;99.90;;;;;;5027684;28;20048;-62
2023/08/30 07:22:55;;;;;;;9.48;6.70;;;14.10;99.90;;;;;;5024488;28;20038;-61
2023/08/30 07:25:21;;;;;;;13.18;7.18;;;14.20;99.90;;;;;;5027504;28;20141;-61
2023/08/30 07:27:46;;;;;;;11.40;6.80;;;14.30;99.90;;;;;;5025980;28;20144;-61
2023/08/30 07:30:12;;;;;;;11.75;6.40;;;14.30;99.90;;;;;;5025889;28;20037;-61
2023/08/30 07:32:38;;;;;;;10.23;6.05;;;14.40;99.90;;;;;;5025691;28;20084;-61
2023/08/30 07:35:10;;;;;;;12.48;7.05;;;14.40;99.90;;;;;;5025215;28;20063;-61
2023/08/30 07:37:35;;;;;;;10.05;6.60;;;14.50;99.90;;;;;;5027606;28;20498;-61
2023/08/30 07:40:04;;;;;;;8.43;6.78;;;14.60;99.90;;;;;;5024269;28;20140;-62
2023/08/30 07:42:30;;;;;;;9.77;6.50;;;14.60;99.90;;;;;;5027094;28;20088;-62
2023/08/30 07:44:56;;;;;;;14.57;7.05;;;14.60;99.90;;;;;;5025836;28;20045;-62
2023/08/30 07:47:21;;;;;;;7.53;6.63;;;14.70;99.90;;;;;;5018592;28;20054;-62
2023/08/30 07:49:47;;;;;;;9.70;6.55;;;14.80;99.90;;;;;;5014663;28;20189;-61
2023/08/30 07:52:13;;;;;;;11.52;6.78;;;14.90;99.90;;;;;;5028751;28;20561;-62
2023/08/30 07:54:40;;;;;;;8.82;6.88;;;14.90;99.90;;;;;;5027903;28;20041;-62
2023/08/30 07:57:07;;;;;;;11.55;6.93;;;15.00;99.90;;;;;;5039519;28;20495;-61
2023/08/30 07:59:37;;;;;;;8.52;5.68;;;15.10;99.90;;;;;;5030656;28;20149;-61
2023/08/30 08:02:07;;;;;;;;;;;15.20;99.90;;;;;;5023750;28;20829;-62
2023/08/30 08:04:33;;;;;;;13.73;6.60;;;15.30;99.90;;;;;;5029334;28;19975;-62
2023/08/30 08:06:59;;;;;;;7.65;6.05;;;15.40;99.90;;;;;;5029047;28;20033;-62
2023/08/30 08:09:25;;;;;;;11.18;6.78;;;15.50;99.90;;;;;;5029054;28;20068;-62
2023/08/30 08:11:51;;;;;;;9.40;7.28;;;15.50;99.90;;;;;;5028047;28;20049;-61
2023/08/30 08:14:17;;;;;;;11.77;7.32;;;15.60;99.90;;;;;;5025722;28;20139;-62
2023/08/30 08:16:43;;;;;;;10.05;6.43;;;15.60;99.90;;;;;;5028546;28;20049;-62
2023/08/30 08:19:09;;;;;;;10.40;6.82;;;15.60;99.90;;;;;;5026985;28;20067;-61
2023/08/30 08:21:35;;;;;;;16.63;7.10;;;15.70;99.90;;;;;;5011450;28;20492;-61
2023/08/30 08:24:04;;;;;;;9.20;7.15;;;15.70;99.90;;;;;;5026341;28;20065;-61
2023/08/30 08:26:30;;;;;;;8.80;6.75;;;15.70;99.90;;;;;;5043105;28;20436;-62
2023/08/30 08:28:56;;;;;;;11.95;7.40;;;15.80;99.90;;;;;;5027736;28;20475;-61
2023/08/30 08:31:22;;;;;;;9.88;7.40;;;15.80;99.90;;;;;;5028162;28;20384;-61
2023/08/30 08:33:51;;;;;;;13.23;6.75;;;15.80;99.90;;;;;;5021744;28;20064;-61
2023/08/30 08:36:16;;;;;;;9.03;6.57;;;15.80;99.90;;;;;;5027978;28;20044;-61
2023/08/30 08:38:42;;;;;;;11.40;7.00;;;15.90;99.90;;;;;;5011966;28;20049;-61
2023/08/30 08:41:12;;;;;;;8.52;6.18;;;15.90;99.90;;;;;;5028608;28;20064;-61
2023/08/30 08:43:40;;;;;;;10.32;7.53;;;15.90;99.90;;;;;;5020167;28;20037;-61
2023/08/30 08:46:06;;;;;;;12.98;7.30;;;15.90;99.90;;;;;;5018870;28;20115;-61
2023/08/30 08:48:39;;;;;;;10.73;7.13;;;15.90;99.90;;;;;;5021150;28;20205;-62
2023/08/30 08:51:05;;;;;;;10.57;6.13;;;16.00;99.90;;;;;;5028074;28;20065;-61
2023/08/30 08:53:32;;;;;;;8.43;6.53;;;16.00;99.90;;;;;;5000476;28;20084;-62
2023/08/30 08:56:00;;;;;;;12.10;7.55;;;15.90;99.90;;;;;;5028085;28;20033;-62
2023/08/30 08:58:26;;;;;;;9.55;6.95;;;15.90;99.90;;;;;;5026873;28;20131;-61
2023/08/30 09:00:54;;;;;;;9.23;6.45;;;15.80;99.90;;;;;;5027989;28;20049;-62
2023/08/30 09:03:21;;;;;;;13.40;6.78;;;15.80;99.90;;;;;;5021084;28;20045;-62
2023/08/30 09:05:48;;;;;;;10.60;6.78;;;15.80;99.90;;;;;;5025654;28;20038;-62
2023/08/30 09:08:15;;;;;;;9.88;6.82;;;15.70;99.90;;;;;;5009536;28;20110;-62
2023/08/30 09:10:41;;;;;;;10.30;6.65;;;15.70;99.90;;;;;;5024939;28;20045;-62
2023/08/30 09:13:07;;;;;;;9.30;6.75;;;15.70;99.90;;;;;;5021380;28;20052;-61
2023/08/30 09:15:34;;;;;;;10.10;6.88;;;15.60;99.90;;;;;;5026067;28;20105;-61
2023/08/30 09:18:00;;;;;;;13.95;7.18;;;15.60;99.90;;;;;;5027810;28;20122;-62
2023/08/30 09:20:25;;;;;;;11.07;7.72;;;15.60;99.90;;;;;;5026441;28;20053;-61
2023/08/30 09:22:52;;;;;;;13.45;7.10;;;15.70;99.90;;;;;;5025001;28;20036;-61
2023/08/30 09:25:28;;;;;;;8.98;7.05;;;15.70;99.90;;;;;;5035410;28;20086;-61
2023/08/30 09:28:00;;;;;;;11.27;7.43;;;15.80;99.90;;;;;;5022838;28;20057;-62
2023/08/30 09:30:26;;;;;;;9.65;7.18;;;15.90;99.90;;;;;;5021787;28;20056;-61
2023/08/30 09:32:52;;;;;;;9.15;7.20;;;16.00;99.90;;;;;;5022608;28;20105;-61
2023/08/30 09:35:24;;;;;;;12.00;7.07;;;16.10;99.90;;;;;;5028401;28;20505;-61
2023/08/30 09:37:49;;;;;;;10.40;7.88;;;16.20;99.90;;;;;;5005434;28;20050;-61
2023/08/30 09:40:19;;;;;;;11.80;8.10;;;16.30;99.90;;;;;;5026498;28;20073;-62
2023/08/30 09:42:45;;;;;;;10.60;7.45;;;16.40;99.90;;;;;;5023529;28;20083;-61
2023/08/30 09:45:23;;;;;;;11.98;8.13;;;16.50;99.90;;;;;;5026102;28;20037;-62
2023/08/30 09:47:49;;;;;;;11.10;8.02;;;16.50;99.90;;;;;;5022301;28;20607;-61
2023/08/30 09:50:20;;;;;;;11.57;7.93;;;16.60;99.90;;;;;;5023678;28;20744;-61
2023/08/30 09:52:50;;;;;;;10.48;7.25;;;16.70;99.90;;;;;;5021410;28;20119;-62
2023/08/30 09:55:19;;;;;;;14.10;9.05;;;16.70;99.90;;;;;;5023240;28;20610;-62
2023/08/30 09:57:45;;;;;;;13.73;8.10;;;16.80;99.90;;;;;;5024829;28;20057;-61
2023/08/30 10:00:12;;;;;;;9.13;7.40;;;16.80;99.90;;;;;;5026246;28;20536;-61
2023/08/30 10:02:43;;;;;;;10.93;8.07;;;16.80;99.90;;;;;;5005285;28;20415;-62
2023/08/30 10:05:10;;;;;;;12.38;8.15;;;16.90;99.90;;;;;;5023399;28;20134;-61
2023/08/30 10:07:37;;;;;;;11.00;7.40;;;16.90;99.90;;;;;;5025075;28;20045;-62
2023/08/30 10:10:07;;;;;;;11.70;7.82;;;17.00;99.90;;;;;;5026599;28;20053;-62
2023/08/30 10:12:33;;;;;;;14.38;8.45;;;17.00;99.90;;;;;;5025716;28;20916;-62
2023/08/30 10:14:59;;;;;;;13.20;8.20;;;17.00;99.90;;;;;;5026147;28;20463;-62
2023/08/30 10:17:28;;;;;;;9.55;7.40;;;16.90;99.90;;;;;;5026172;28;20085;-61
2023/08/30 10:19:56;;;;;;;8.27;6.85;;;16.90;99.90;;;;;;5018482;28;20038;-62
2023/08/30 10:22:24;;;;;;;10.85;6.63;;;16.90;99.90;;;;;;5025192;28;20462;-62
2023/08/30 10:25:20;;;;;;;8.63;6.68;;;16.80;99.90;;;;;;5025241;28;20415;-61
2023/08/30 10:27:48;;;;;;;11.40;6.95;;;16.70;99.90;;;;;;5017446;28;20391;-61
2023/08/30 10:30:16;;;;;;;7.53;6.10;;;16.60;99.90;;;;;;5027162;28;20403;-61
2023/08/30 10:32:44;;;;;;;8.07;6.35;;;16.50;99.90;;;;;;5024052;28;20422;-61
2023/08/30 10:35:17;;;;;;;8.32;6.18;;;16.50;99.90;;;;;;5025872;28;20038;-62
2023/08/30 10:37:58;;;;;;;12.80;6.47;;;16.40;99.90;;;;;;5024373;28;20115;-63
2023/08/30 10:40:24;;;;;;;9.02;5.95;;;16.30;99.90;;;;;;5026939;28;20084;-62
2023/08/30 10:43:03;;;;;;;9.90;7.03;;;16.30;99.90;;;;;;5024504;28;20073;-61
2023/08/30 10:45:30;;;;;;;10.38;6.07;;;16.30;99.90;;;;;;5024118;28;20041;-62
2023/08/30 10:47:57;;;;;;;9.23;6.30;;;16.30;99.90;;;;;;5024297;28;20088;-62
2023/08/30 10:50:32;;;;;;;9.57;6.90;;;16.20;99.90;;;;;;5024308;28;20089;-62
2023/08/30 10:52:58;;;;;;;10.95;6.90;;;16.20;99.90;;;;;;5000819;28;20053;-62
2023/08/30 10:55:24;;;;;;;7.47;5.97;;;16.20;99.90;;;;;;5025426;28;20068;-62
2023/08/30 10:58:02;;;;;;;11.63;6.90;;;16.30;99.90;;;;;;5024597;28;20092;-62
2023/08/30 11:00:30;;;;;;;8.95;5.97;;;16.40;99.90;;;;;;5025717;28;20466;-62
2023/08/30 11:02:56;;;;;;;11.02;6.63;;;16.60;99.90;;;;;;5021841;28;20041;-62
2023/08/30 11:05:27;;;;;;;10.23;6.63;;;16.70;99.90;;;;;;5004581;28;20491;-62
2023/08/30 11:07:53;;;;;;;15.98;6.88;;;16.80;99.90;;;;;;5024187;28;20529;-62
2023/08/30 11:10:20;;;;;;;13.27;8.20;;;17.00;99.90;;;;;;5021644;28;20054;-63
2023/08/30 11:12:48;;;;;;;16.48;7.47;;;17.10;99.90;;;;;;5024220;28;20507;-62
2023/08/30 11:15:14;;;;;;;12.35;7.20;;;17.20;99.90;;;;;;5023994;28;20473;-62
2023/08/30 11:17:41;;;;;;;15.32;7.35;;;17.20;99.90;;;;;;5024757;28;20561;-62
2023/08/30 11:20:09;;;;;;;10.90;7.38;;;17.20;99.90;;;;;;5015900;28;20045;-62
2023/08/30 11:22:40;;;;;;;10.95;7.40;;;17.20;99.90;;;;;;5025432;28;20076;-62
2023/08/30 11:25:09;;;;;;;8.88;6.93;;;17.20;99.90;;;;;;5015058;28;20053;-62
2023/08/30 11:27:34;;;;;;;12.90;8.43;;;17.20;99.90;;;;;;5020403;28;20514;-62
2023/08/30 11:30:05;;;;;;;11.70;7.32;;;17.30;99.90;;;;;;5023400;28;20044;-62
2023/08/30 11:32:45;;;;;;;8.32;6.07;;;17.30;99.90;;;;;;5023869;28;20599;-62
2023/08/30 11:35:11;;;;;;;;;;;17.40;99.90;;;;;;5037606;28;20053;-62
2023/08/30 11:37:36;;;;;;;4.85;4.28;;;17.40;99.90;;;;;;5023935;28;19965;-62
2023/08/30 11:40:05;;;;;;;11.52;6.03;;;17.40;98.50;;;;;;5024146;28;20051;-62
2023/08/30 11:42:32;;;;;;;11.57;8.00;;;17.50;99.90;;;;;;5023825;28;20067;-62
2023/08/30 11:44:59;;;;;;;7.38;5.00;;;17.50;99.90;;;;;;5023670;28;20140;-62
2023/08/30 11:47:25;;;;;;;6.68;4.13;;;17.50;99.90;;;;;;5024470;28;20050;-62
2023/08/30 11:49:58;;;;;;;5.38;3.88;;;17.50;99.30;;;;;;5024105;28;20080;-62
2023/08/30 11:52:26;;;;;;;3.75;3.45;;;17.50;99.90;;;;;;5019770;28;20048;-62
2023/08/30 11:54:52;;;;;;;2.90;2.70;;;17.40;98.90;;;;;;5024692;28;20065;-62
2023/08/30 11:57:19;;;;;;;4.03;2.88;;;17.40;98.80;;;;;;5025249;28;20050;-62
2023/08/30 11:59:45;;;;;;;3.08;2.78;;;17.30;96.70;;;;;;5024265;28;20057;-62
2023/08/30 12:02:16;;;;;;;4.43;3.15;;;17.10;97.90;;;;;;5023876;28;20507;-62
2023/08/30 12:04:43;;;;;;;3.45;3.15;;;17.00;98.40;;;;;;5020934;28;20045;-62
2023/08/30 12:07:10;;;;;;;6.32;3.50;;;16.80;99.90;;;;;;5024083;28;20496;-62
2023/08/30 12:09:36;;;;;;;4.53;4.05;;;16.80;99.90;;;;;;5024692;28;20480;-62
2023/08/30 12:12:06;;;;;;;7.13;4.97;;;16.80;99.90;;;;;;5025194;28;20050;-62
2023/08/30 12:14:36;;;;;;;5.40;4.65;;;16.70;99.90;;;;;;5023998;28;20124;-62
2023/08/30 12:17:03;;;;;;;9.90;5.45;;;16.70;99.90;;;;;;5023494;28;20049;-62
2023/08/30 12:19:29;;;;;;;6.90;5.13;;;16.70;99.90;;;;;;5016506;28;20124;-62
2023/08/30 12:21:55;;;;;;;10.02;4.57;;;16.70;99.90;;;;;;5022993;28;20477;-62
2023/08/30 12:24:22;;;;;;;5.22;4.75;;;16.80;99.90;;;;;;5019701;28;20042;-62
2023/08/30 12:26:48;;;;;;;3.60;3.30;;;16.80;99.90;;;;;;5024568;28;20041;-62
2023/08/30 12:29:14;;;;;;;6.18;4.22;;;16.80;99.90;;;;;;5023115;28;20133;-62
2023/08/30 12:31:40;;;;;;;4.88;3.70;;;16.80;99.90;;;;;;5023938;28;20048;-62
2023/08/30 12:34:05;;;;;;;5.68;4.00;;;16.70;99.90;;;;;;5020887;28;20050;-62
2023/08/30 12:36:31;;;;;;;5.38;4.38;;;16.60;99.90;;;;;;5025893;28;20452;-62
2023/08/30 12:38:57;;;;;;;4.97;4.28;;;16.60;99.90;;;;;;5010325;28;20124;-62
2023/08/30 12:41:23;;;;;;;5.20;4.30;;;16.40;99.90;;;;;;5012033;28;20510;-62
2023/08/30 12:43:51;;;;;;;5.03;4.53;;;16.30;99.90;;;;;;5025448;28;20128;-62